Flight Track Log - Related Links

Times and Time Zones

All times are in EDT time to prevent confusion due to time zone crossing. See the SKW4473 flight status page for this flight to view local times or setup timezone preferences in your user account.

Time Position Orientation Groundspeed Altitude Reporting Facility
EDT Latitude Longitude Course Direction KTS MPH feet Rate Location/Type
Tue 01:21:48 PM 40.8056 -111.9628 13° North 149 171 5,200  Level Salt Lake Center
Tue 01:23:01 PM 40.8722 -111.9739 353° North 221 254 7,300 1,600 Climbing Salt Lake Center
Tue 01:23:18 PM 40.8825 -111.9731 North 220 253 7,600 3,164 Climbing Salt Lake Center
Tue 01:23:56 PM 40.9381 -111.9800 355° North 260 299 10,200 3,541 Climbing Salt Lake Center
Tue 01:24:00 PM 41.1233 -111.9317 48° Northeast  Level FlightAware Approximate
Tue 01:24:19 PM 40.9556 -111.9825 354° North 259 298 11,200  Level Salt Lake Center
Tue 01:25:00 PM 41.2127 -111.8207 37° Northeast  Level FlightAware Approximate
Tue 01:25:21 PM 41.0319 -111.9769 North 293 337 13,500  Level Salt Lake Center
Tue 01:26:00 PM 41.3187 -111.7479 37° Northeast  Level FlightAware Approximate
Tue 01:26:22 PM 41.1147 -111.9156 29° Northeast 335 386 15,700  Level Salt Lake Center
Tue 01:27:00 PM 41.4277 -111.6817 13° North  Level FlightAware Approximate
Tue 01:27:23 PM 41.2028 -111.8494 29° Northeast 358 412 17,700  Level Salt Lake Center
Tue 01:28:25 PM 41.3136 -111.7653 30° Northeast 383 441 19,800 2,049 Climbing Salt Lake Center
Tue 01:29:26 PM 41.4119 -111.7000 26° Northeast 392 451 21,900 1,902 Climbing Salt Lake Center
Tue 01:30:28 PM 41.5103 -111.6964 North 349 402 23,700 1,512 Climbing Salt Lake Center
Tue 01:31:29 PM 41.6094 -111.7008 358° North 357 411 25,000 1,220 Climbing Salt Lake Center
Tue 01:32:31 PM 41.7139 -111.7053 358° North 373 429 26,200 1,073 Climbing Salt Lake Center
Tue 01:33:32 PM 41.8175 -111.7108 358° North 374 430 27,200 976 Climbing Salt Lake Center
Tue 01:34:34 PM 41.9261 -111.7164 358° North 383 441 28,200 976 Climbing Salt Lake Center
Tue 01:35:35 PM 42.0364 -111.7214 358° North 395 455 29,200 1,024 Climbing Salt Lake Center
Tue 01:36:37 PM 42.1700 -111.7275 358° North 400 460 30,300 823 Climbing Salt Lake Center
Tue 01:37:39 PM 42.2833 -111.7322 358° North 408 470 30,900 537 Climbing Salt Lake Center
Tue 01:38:40 PM 42.4006 -111.7397 357° North 419 482 31,400 537 Climbing Salt Lake Center
Tue 01:39:42 PM 42.5217 -111.7436 359° North 431 496 32,000 293 Climbing Salt Lake Center
Tue 01:40:43 PM 42.6436 -111.7519 357° North 438 504 32,000  Level Salt Lake Center
Tue 01:41:45 PM 42.7686 -111.7564 359° North 426 490 32,000  Level Salt Lake Center
Tue 01:42:47 PM 42.8758 -111.7600 359° North 406 467 32,000  Level Salt Lake Center
Tue 01:43:48 PM 43.0003 -111.7681 357° North 401 461 32,000  Level Salt Lake Center
Tue 01:44:50 PM 43.1061 -111.7711 359° North 397 457 32,000  Level Salt Lake Center
Tue 01:45:52 PM 43.2283 -111.7772 358° North 392 451 32,000  Level Salt Lake Center
Tue 01:46:54 PM 43.3339 -111.7825 358° North 393 452 32,000  Level Salt Lake Center
Tue 01:47:55 PM 43.4581 -111.7894 358° North 398 458 32,000  Level Salt Lake Center
Tue 01:48:57 PM 43.5661 -111.7950 358° North 402 463 32,000  Level Salt Lake Center
Tue 01:49:59 PM 43.6736 -111.7994 358° North 405 466 32,000  Level Salt Lake Center
Tue 01:51:01 PM 43.8008 -111.8011 359° North 409 471 32,000  Level Salt Lake Center
Tue 01:52:02 PM 43.9128 -111.7864 North 420 483 32,000  Level Salt Lake Center
Tue 01:53:04 PM 44.0417 -111.7697 North 418 481 32,000  Level Salt Lake Center
Tue 01:54:06 PM 44.1550 -111.7550 North 424 488 32,000  Level Salt Lake Center
Tue 01:55:08 PM 44.2842 -111.7383 North 417 480 32,000  Level Salt Lake Center
Tue 01:56:09 PM 44.3939 -111.7236 North 412 474 32,000  Level Salt Lake Center
Tue 01:57:11 PM 44.5036 -111.7086 North 411 473 32,000  Level Salt Lake Center
Tue 01:58:13 PM 44.6325 -111.6914 North 411 473 32,000  Level Salt Lake Center
Tue 01:59:15 PM 44.7428 -111.6778 North 410 472 32,000  Level Salt Lake Center
Tue 02:00:16 PM 44.8511 -111.6636 North 406 467 32,000  Level Salt Lake Center
Tue 02:01:18 PM 44.9775 -111.6469 North 406 467 32,000 -145 Level Salt Lake Center
Tue 02:02:20 PM 45.0842 -111.6319 North 404 465 31,700 -1,016 Descending Salt Lake Center
Tue 02:03:22 PM 45.1908 -111.6186 North 400 460 29,900 -1,854 Descending Salt Lake Center
Tue 02:04:23 PM 45.3200 -111.6019 North 388 447 27,900 -1,756 Descending Salt Lake Center
Tue 02:05:25 PM 45.4203 -111.5889 North 365 420 26,300 -1,548 Descending Salt Lake Center
Tue 02:06:27 PM 45.5172 -111.5747 North 351 404 24,700 -1,452 Descending Salt Lake Center
Tue 02:07:29 PM 45.6086 -111.5639 North 332 382 23,300 -1,268 Descending Salt Lake Center
Tue 02:08:30 PM 45.6953 -111.5517 North 317 365 22,100 -1,171 Descending Salt Lake Center
Tue 02:09:32 PM 45.7758 -111.5397 North 295 339 20,900 -1,113 Descending Salt Lake Center
Tue 02:10:34 PM 45.8567 -111.5297 North 289 333 19,800 -823 Descending Salt Lake Center
Tue 02:11:36 PM 45.9344 -111.5189 North 280 322 19,200 -532 Descending Salt Lake Center
Tue 02:12:38 PM 46.0136 -111.5094 North 283 326 18,700 -585 Descending Salt Lake Center
Tue 02:13:39 PM 46.1089 -111.4967 North 285 328 18,000 -683 Descending Salt Lake Center
Tue 02:14:41 PM 46.1819 -111.4853 North 272 313 17,300 -919 Descending Salt Lake Center
Tue 02:15:43 PM 46.2517 -111.4769 North 261 300 16,100 -1,306 Descending Salt Lake Center
Tue 02:16:45 PM 46.3219 -111.4675 North 256 295 14,600 -1,452 Descending Salt Lake Center
Tue 02:18:00 PM 46.4478 -111.4333 North  Level FlightAware Approximate
Tue 02:25:00 PM 46.6000 -111.9667 North  Level FlightAware Approximate
Tue 02:26:00 PM 46.6068 -111.9827 North  Level Estimated
Tue 02:27:00 PM 46.6068 -111.9827 North  Level Estimated
Tue 02:28:00 PM 46.6068 -111.9827 North  Level Estimated

Login

Don't have an account? Register now (free) for customized features, flight alerts, and more!